Claymont, Delaware
Current Conditions -  °F | °C
As of 10:51 PM on Sunday 21 Dec 2014 (Local Time) from KILG Reporting Station
Clear Clear  
Wind Chill: 23°   Ceiling: Unl
Heat Index: 28°   Visibility: 8mi
Dew Point: 22°   Wind: 5mph
Humidity: 78%   Direction: 330°NNW
Pressure: 30.35"   Gusts: NA
Location:  39.8°N, 75.46°W
Report Text: KILG 220351Z 33004KT 8SM CLR M02/M06 A3035 RMK AO2 SLP279 T10221056
Loading
Personal Weather Stations






























Interactive Weather Map New forecast layout! Learn more

10-Day Weather Forecast

Advertisements
Track Severe Weather on mobile